createdAt,value
2018-08-28T00:01:37.118Z,5.90
2018-08-28T00:04:05.994Z,4.60
2018-08-28T00:06:35.200Z,6.17
2018-08-28T00:09:04.856Z,6.50
2018-08-28T00:11:33.683Z,4.47
2018-08-28T00:14:02.846Z,4.85
2018-08-28T00:16:31.750Z,5.53
2018-08-28T00:19:00.940Z,6.75
2018-08-28T00:21:29.784Z,7.65
2018-08-28T00:23:58.609Z,6.00
2018-08-28T00:26:27.428Z,4.53
2018-08-28T00:28:56.315Z,7.30
2018-08-28T00:31:25.147Z,4.40
2018-08-28T00:33:54.005Z,5.55
2018-08-28T00:36:22.855Z,7.62
2018-08-28T00:38:51.921Z,6.25
2018-08-28T00:41:20.766Z,5.75
2018-08-28T00:43:49.634Z,7.00
2018-08-28T00:46:18.778Z,6.25
2018-08-28T00:48:47.615Z,7.10
2018-08-28T00:51:16.412Z,6.42
2018-08-28T00:53:45.243Z,7.30
2018-08-28T00:56:14.085Z,6.92
2018-08-28T00:58:42.922Z,6.03
2018-08-28T01:01:11.738Z,7.30
2018-08-28T01:03:40.564Z,7.20
2018-08-28T01:06:09.428Z,6.30
2018-08-28T01:08:38.288Z,6.42
2018-08-28T01:11:07.489Z,7.45
2018-08-28T01:13:36.324Z,6.42
2018-08-28T01:16:05.506Z,4.72
2018-08-28T01:18:34.357Z,7.58
2018-08-28T01:21:03.223Z,6.80
2018-08-28T01:23:32.368Z,5.97
2018-08-28T01:26:01.191Z,8.30
2018-08-28T01:28:30.027Z,6.53
2018-08-28T01:30:58.843Z,7.33
2018-08-28T01:33:27.706Z,6.50
2018-08-28T01:35:56.526Z,6.80
2018-08-28T01:38:25.312Z,6.03
2018-08-28T01:40:54.152Z,9.10
2018-08-28T01:43:23.562Z,8.20
2018-08-28T01:45:54.124Z,6.25
2018-08-28T01:48:22.952Z,8.23
2018-08-28T01:50:51.789Z,9.93
2018-08-28T01:53:20.771Z,5.83
2018-08-28T01:55:49.755Z,6.60
2018-08-28T01:58:18.605Z,7.28
2018-08-28T02:00:47.450Z,6.95
2018-08-28T02:03:16.583Z,8.75
2018-08-28T02:05:45.827Z,6.90
2018-08-28T02:08:15.747Z,6.87
2018-08-28T02:10:44.616Z,6.95
2018-08-28T02:13:13.503Z,7.65
2018-08-28T02:15:42.492Z,7.30
2018-08-28T02:18:11.316Z,6.62
2018-08-28T02:20:40.175Z,7.37
2018-08-28T02:23:09.014Z,6.95
2018-08-28T02:25:37.883Z,6.33
2018-08-28T02:28:06.719Z,10.45
2018-08-28T02:30:35.818Z,6.30
2018-08-28T02:33:04.802Z,7.75
2018-08-28T02:35:33.678Z,7.12
2018-08-28T02:38:02.504Z,6.40
2018-08-28T02:40:31.442Z,8.08
2018-08-28T02:43:00.244Z,7.20
2018-08-28T02:45:29.076Z,7.78
2018-08-28T02:47:58.067Z,7.08
2018-08-28T02:50:26.948Z,8.43
2018-08-28T02:52:55.867Z,8.00
2018-08-28T02:55:24.687Z,7.12
2018-08-28T02:57:53.525Z,9.70
2018-08-28T03:00:22.334Z,7.42
2018-08-28T03:02:51.465Z,8.13
2018-08-28T03:05:20.474Z,9.30
2018-08-28T03:07:49.300Z,6.97
2018-08-28T03:10:18.128Z,5.58
2018-08-28T03:12:46.986Z,7.97
2018-08-28T03:15:15.806Z,7.70
2018-08-28T03:17:44.659Z,9.18
2018-08-28T03:20:13.477Z,8.53
2018-08-28T03:22:42.305Z,6.67
2018-08-28T03:25:11.465Z,9.03
2018-08-28T03:27:40.306Z,8.95
2018-08-28T03:30:09.183Z,7.37
2018-08-28T03:32:38.212Z,7.97
2018-08-28T03:35:07.087Z,7.85
2018-08-28T03:37:35.923Z,7.87
2018-08-28T03:40:05.777Z,9.83
2018-08-28T03:42:34.615Z,7.55
2018-08-28T03:45:03.443Z,7.33
2018-08-28T03:47:32.422Z,11.45
2018-08-28T03:50:01.285Z,9.68
2018-08-28T03:52:30.136Z,7.03
2018-08-28T03:54:58.980Z,8.45
2018-08-28T03:57:27.808Z,10.43
2018-08-28T03:59:56.658Z,10.88
2018-08-28T04:02:25.507Z,10.38
2018-08-28T04:04:54.402Z,8.95
2018-08-28T04:07:23.220Z,8.93
2018-08-28T04:09:52.058Z,8.38
2018-08-28T04:12:21.211Z,8.30
2018-08-28T04:14:50.061Z,8.20
2018-08-28T04:17:18.888Z,10.30
2018-08-28T04:19:47.698Z,8.80
2018-08-28T04:22:16.543Z,10.23
2018-08-28T04:24:45.401Z,13.50
2018-08-28T04:27:14.256Z,9.55
2018-08-28T04:29:43.136Z,11.35
2018-08-28T04:32:12.018Z,10.58
2018-08-28T04:34:40.860Z,8.00
2018-08-28T04:37:09.717Z,8.50
2018-08-28T04:39:38.567Z,9.38
2018-08-28T04:42:07.407Z,10.23
2018-08-28T04:44:36.509Z,9.53
2018-08-28T04:47:05.455Z,9.78
2018-08-28T04:49:34.286Z,9.65
2018-08-28T04:52:03.134Z,9.13
2018-08-28T04:54:31.974Z,9.15
2018-08-28T04:57:00.854Z,8.18
2018-08-28T04:59:29.700Z,8.18
2018-08-28T05:01:58.425Z,8.80
2018-08-28T05:04:27.272Z,7.37
2018-08-28T05:06:56.128Z,11.00
2018-08-28T05:09:24.972Z,10.18
2018-08-28T05:11:53.908Z,9.65
2018-08-28T05:14:22.845Z,7.50
2018-08-28T05:16:51.689Z,9.05
2018-08-28T05:19:20.595Z,7.80
2018-08-28T05:21:49.614Z,7.70
2018-08-28T05:24:18.446Z,9.53
2018-08-28T05:26:47.351Z,6.80
2018-08-28T05:29:16.184Z,8.00
2018-08-28T05:31:45.008Z,9.20
2018-08-28T05:34:13.859Z,7.28
2018-08-28T05:36:42.708Z,8.75
2018-08-28T05:39:11.586Z,12.43
2018-08-28T05:41:40.993Z,10.23
2018-08-28T05:44:12.299Z,8.28
2018-08-28T05:46:41.181Z,10.93
2018-08-28T05:49:10.015Z,8.75
2018-08-28T05:51:38.961Z,6.92
2018-08-28T05:54:07.800Z,6.92
2018-08-28T05:56:36.713Z,8.70
2018-08-28T05:59:05.927Z,7.65
2018-08-28T06:01:34.447Z,9.10
2018-08-28T06:10:48.602Z,9.40
2018-08-28T06:13:17.481Z,9.30
2018-08-28T06:15:46.356Z,9.30
2018-08-28T06:18:15.256Z,7.22
2018-08-28T06:20:44.309Z,8.48
2018-08-28T06:23:13.331Z,9.33
2018-08-28T06:25:42.422Z,8.98
2018-08-28T06:28:11.582Z,10.98
2018-08-28T06:30:40.762Z,8.35
2018-08-28T06:33:09.770Z,8.23
2018-08-28T06:35:38.668Z,10.18
2018-08-28T06:38:07.504Z,8.88
2018-08-28T06:40:36.349Z,8.78
2018-08-28T06:43:05.701Z,7.35
2018-08-28T06:45:35.197Z,9.03
2018-08-28T06:48:04.389Z,6.42
2018-08-28T06:50:33.194Z,8.45
2018-08-28T06:53:02.069Z,8.98
2018-08-28T06:55:30.877Z,8.08
2018-08-28T06:57:59.710Z,12.35
2018-08-28T07:00:28.570Z,9.70
2018-08-28T07:02:57.390Z,9.15
2018-08-28T07:05:26.303Z,9.65
2018-08-28T07:10:50.135Z,7.03
2018-08-28T07:13:18.971Z,8.80
2018-08-28T07:15:47.808Z,8.03
2018-08-28T07:18:16.636Z,8.58
2018-08-28T07:20:45.485Z,13.28
2018-08-28T07:23:14.369Z,9.90
2018-08-28T07:25:43.257Z,7.42
2018-08-28T07:28:12.244Z,8.55
2018-08-28T07:30:41.088Z,10.03
2018-08-28T07:33:09.993Z,7.55
2018-08-28T07:35:38.859Z,11.18
2018-08-28T07:38:07.764Z,9.55
2018-08-28T07:40:36.623Z,10.82
2018-08-28T07:43:05.843Z,9.90
2018-08-28T07:45:34.679Z,10.32
2018-08-28T07:48:03.526Z,7.75
2018-08-28T07:53:27.630Z,8.08
2018-08-28T07:55:56.452Z,9.28
2018-08-28T07:58:25.277Z,8.58
2018-08-28T08:00:53.579Z,11.50
2018-08-28T08:03:24.094Z,13.18
2018-08-28T08:05:54.582Z,11.03
2018-08-28T08:08:23.444Z,8.25
2018-08-28T08:10:52.721Z,8.98
2018-08-28T08:13:21.604Z,8.33
2018-08-28T08:15:50.416Z,9.05
2018-08-28T08:18:19.274Z,10.90
2018-08-28T08:20:48.140Z,8.63
2018-08-28T08:23:17.009Z,11.15
2018-08-28T08:25:45.873Z,10.58
2018-08-28T08:28:15.163Z,12.50
2018-08-28T08:30:44.105Z,11.00
2018-08-28T08:33:13.009Z,8.75
2018-08-28T08:35:41.829Z,9.63
2018-08-28T08:38:10.696Z,9.93
2018-08-28T08:40:39.548Z,11.43
2018-08-28T08:43:08.392Z,11.40
2018-08-28T08:45:37.237Z,8.78
2018-08-28T08:48:06.085Z,9.63
2018-08-28T08:50:34.945Z,13.38
2018-08-28T08:53:03.780Z,9.00
2018-08-28T08:55:32.980Z,10.05
2018-08-28T08:58:01.858Z,10.58
2018-08-28T09:00:30.725Z,10.05
2018-08-28T09:02:59.531Z,11.20
2018-08-28T09:05:28.384Z,8.78
2018-08-28T09:07:57.264Z,11.00
2018-08-28T09:10:26.172Z,11.08
2018-08-28T09:12:55.068Z,11.50
2018-08-28T09:15:24.625Z,11.35
2018-08-28T09:17:53.472Z,10.25
2018-08-28T09:20:22.324Z,9.93
2018-08-28T09:22:51.216Z,10.08
2018-08-28T09:25:20.141Z,10.53
2018-08-28T09:27:49.049Z,9.05
2018-08-28T09:30:17.898Z,8.03
2018-08-28T09:32:46.762Z,9.33
2018-08-28T09:35:15.594Z,10.25
2018-08-28T09:37:44.996Z,8.15
2018-08-28T09:40:13.904Z,9.80
2018-08-28T09:42:42.829Z,8.80
2018-08-28T09:45:11.692Z,10.38
2018-08-28T09:47:40.596Z,10.50
2018-08-28T09:50:09.451Z,10.48
2018-08-28T09:52:38.537Z,8.78
2018-08-28T09:55:07.714Z,8.53
2018-08-28T09:57:36.545Z,6.90
2018-08-28T10:00:07.250Z,9.05
2018-08-28T10:02:36.087Z,9.07
2018-08-28T10:05:04.968Z,8.68
2018-08-28T10:07:33.796Z,11.30
2018-08-28T10:10:02.669Z,8.10
2018-08-28T10:12:31.494Z,8.93
2018-08-28T10:15:00.336Z,9.55
2018-08-28T10:17:29.166Z,9.03
2018-08-28T10:19:58.237Z,10.75
2018-08-28T10:22:32.581Z,11.00
2018-08-28T10:25:01.422Z,10.28
2018-08-28T10:27:30.379Z,9.95
2018-08-28T10:29:59.308Z,9.80
2018-08-28T10:32:28.260Z,8.38
2018-08-28T10:34:57.090Z,8.10
2018-08-28T10:37:25.922Z,7.80
2018-08-28T10:39:54.762Z,8.90
2018-08-28T10:42:23.644Z,7.37
2018-08-28T10:44:58.581Z,9.40
2018-08-28T10:47:27.640Z,10.13
2018-08-28T10:49:56.489Z,8.28
2018-08-28T10:52:25.331Z,7.60
2018-08-28T10:54:54.220Z,8.18
2018-08-28T10:57:23.098Z,10.15
2018-08-28T10:59:52.143Z,8.08
2018-08-28T11:02:20.714Z,11.67
2018-08-28T11:04:49.671Z,7.75
2018-08-28T11:07:19.795Z,8.25
2018-08-28T11:09:48.664Z,9.15
2018-08-28T11:12:17.483Z,8.33
2018-08-28T11:14:46.330Z,8.78
2018-08-28T11:17:15.138Z,8.13
2018-08-28T11:19:43.955Z,8.45
2018-08-28T11:22:12.876Z,7.37
2018-08-28T11:24:41.886Z,7.90
2018-08-28T11:27:10.737Z,7.75
2018-08-28T11:29:41.287Z,7.40
2018-08-28T11:32:10.119Z,6.65
2018-08-28T11:34:38.937Z,6.15
2018-08-28T11:37:07.803Z,5.30
2018-08-28T11:39:36.702Z,6.17
2018-08-28T11:42:05.629Z,6.97
2018-08-28T11:44:34.512Z,7.58
2018-08-28T11:47:03.386Z,7.67
2018-08-28T11:49:32.398Z,8.43
2018-08-28T11:52:01.266Z,8.45
2018-08-28T11:54:30.096Z,5.78
2018-08-28T11:56:59.016Z,8.00
2018-08-28T11:59:27.842Z,8.15
2018-08-28T12:01:56.486Z,5.80
2018-08-28T12:04:25.551Z,7.55
2018-08-28T12:06:54.713Z,8.83
2018-08-28T12:09:23.540Z,7.90
2018-08-28T12:11:52.452Z,7.10
2018-08-28T12:14:21.088Z,7.07
2018-08-28T12:16:49.722Z,8.17
2018-08-28T12:19:18.476Z,7.03
2018-08-28T12:21:47.096Z,9.27
2018-08-28T12:24:17.055Z,7.87
2018-08-28T12:26:45.727Z,6.27
2018-08-28T12:29:14.448Z,9.17
2018-08-28T12:31:42.996Z,9.17
2018-08-28T12:34:11.877Z,7.78
2018-08-28T12:36:40.800Z,8.20
2018-08-28T12:39:09.961Z,10.03
2018-08-28T12:41:39.182Z,7.90
2018-08-28T12:44:08.191Z,10.75
2018-08-28T12:46:38.606Z,8.80
2018-08-28T12:49:07.490Z,7.60
2018-08-28T12:51:36.528Z,7.70
2018-08-28T12:54:05.783Z,8.20
2018-08-28T12:56:34.831Z,8.18
2018-08-28T12:59:04.042Z,9.05
2018-08-28T13:01:32.597Z,8.63
2018-08-28T13:04:01.422Z,7.40
2018-08-28T13:06:30.309Z,9.75
2018-08-28T13:08:59.133Z,8.00
2018-08-28T13:11:28.124Z,7.85
2018-08-28T13:13:57.135Z,8.58
2018-08-28T13:16:26.132Z,9.55
2018-08-28T13:18:55.015Z,7.45
2018-08-28T13:21:23.880Z,8.00
2018-08-28T13:23:52.729Z,9.38
2018-08-28T13:26:21.567Z,6.87
2018-08-28T13:28:50.424Z,9.00
2018-08-28T13:31:22.505Z,6.90
2018-08-28T13:33:51.931Z,8.73
2018-08-28T13:36:20.797Z,8.48
2018-08-28T13:38:49.621Z,8.45
2018-08-28T13:41:18.476Z,8.85
2018-08-28T13:43:47.532Z,9.35
2018-08-28T13:46:16.417Z,10.13
2018-08-28T13:48:45.315Z,7.40
2018-08-28T13:51:14.205Z,9.85
2018-08-28T13:53:43.675Z,7.58
2018-08-28T13:56:12.544Z,8.35
2018-08-28T13:58:41.422Z,8.23
2018-08-28T14:01:09.727Z,6.90
2018-08-28T14:03:38.571Z,9.73
2018-08-28T14:06:07.390Z,9.00
2018-08-28T14:08:36.227Z,9.00
2018-08-28T14:11:05.068Z,9.25
2018-08-28T14:13:33.988Z,11.08
2018-08-28T14:16:02.895Z,11.12
2018-08-28T14:18:31.760Z,8.58
2018-08-28T14:21:00.651Z,10.35
2018-08-28T14:23:29.512Z,9.70
2018-08-28T14:25:58.353Z,8.35
2018-08-28T14:28:27.732Z,8.58
2018-08-28T14:30:56.956Z,7.85
2018-08-28T14:33:25.800Z,9.18
2018-08-28T14:35:56.510Z,8.43
2018-08-28T14:38:25.345Z,8.50
2018-08-28T14:40:54.423Z,8.73
2018-08-28T14:43:23.325Z,8.90
2018-08-28T14:45:52.375Z,10.63
2018-08-28T14:48:21.454Z,11.33
2018-08-28T14:50:50.336Z,8.23
2018-08-28T14:53:19.220Z,9.73
2018-08-28T14:55:48.094Z,9.63
2018-08-28T14:58:16.953Z,9.80
2018-08-28T15:00:45.503Z,9.73
2018-08-28T15:03:14.103Z,9.83
2018-08-28T15:05:42.951Z,9.43
2018-08-28T15:08:11.845Z,9.85
2018-08-28T15:10:40.745Z,8.98
2018-08-28T15:13:09.331Z,14.50
2018-08-28T15:15:38.288Z,12.33
2018-08-28T15:18:07.774Z,11.12
2018-08-28T15:20:36.432Z,10.30
2018-08-28T15:23:05.245Z,9.60
2018-08-28T15:25:34.433Z,10.43
2018-08-28T15:28:03.189Z,12.70
2018-08-28T15:30:32.112Z,11.43
2018-08-28T15:33:01.213Z,10.47
2018-08-28T15:35:30.084Z,10.57
2018-08-28T15:37:58.704Z,9.60
2018-08-28T15:40:27.383Z,10.67
2018-08-28T15:42:55.993Z,9.13
2018-08-28T15:45:24.744Z,8.67
2018-08-28T15:47:53.416Z,8.07
2018-08-28T15:50:21.961Z,10.07
2018-08-28T15:52:50.507Z,10.53
2018-08-28T15:55:19.330Z,9.53
2018-08-28T15:57:47.973Z,9.50
2018-08-28T16:00:16.762Z,9.33
2018-08-28T16:02:45.378Z,7.90
2018-08-28T16:05:13.977Z,10.17
2018-08-28T16:07:42.603Z,9.33
2018-08-28T16:10:11.213Z,9.53
2018-08-28T16:12:39.828Z,8.20
2018-08-28T16:15:08.397Z,8.33
2018-08-28T16:17:37.061Z,8.10
2018-08-28T16:20:05.638Z,10.30
2018-08-28T16:22:37.868Z,10.63
2018-08-28T16:25:06.474Z,8.83
2018-08-28T16:27:35.042Z,9.60
2018-08-28T16:30:03.900Z,10.73
2018-08-28T16:32:32.458Z,11.13
2018-08-28T16:35:01.036Z,9.80
2018-08-28T16:37:29.576Z,8.17
2018-08-28T16:39:58.150Z,9.37
2018-08-28T16:42:26.742Z,9.00
2018-08-28T16:44:55.413Z,9.07
2018-08-28T16:47:23.954Z,10.50
2018-08-28T16:49:52.530Z,8.47
2018-08-28T16:52:21.086Z,8.90
2018-08-28T16:54:49.732Z,10.70
2018-08-28T16:57:18.381Z,8.70
2018-08-28T16:59:47.221Z,10.13
2018-08-28T17:02:15.819Z,7.83
2018-08-28T17:04:44.635Z,9.23
2018-08-28T17:07:13.253Z,9.70
2018-08-28T17:09:42.275Z,9.75
2018-08-28T17:12:11.213Z,11.28
2018-08-28T17:14:40.204Z,9.83
2018-08-28T17:17:09.218Z,9.85
2018-08-28T17:19:38.038Z,8.25
2018-08-28T17:22:07.209Z,10.20
2018-08-28T17:24:36.305Z,11.57
2018-08-28T17:27:05.853Z,10.38
2018-08-28T17:29:35.015Z,10.13
2018-08-28T17:32:04.276Z,10.40
2018-08-28T17:34:33.219Z,10.35
2018-08-28T17:37:02.125Z,9.83
2018-08-28T17:39:31.182Z,9.55
2018-08-28T17:42:00.113Z,9.58
2018-08-28T17:44:29.164Z,10.15
2018-08-28T17:46:58.194Z,10.03
2018-08-28T17:49:27.044Z,8.90
2018-08-28T17:51:55.948Z,10.55
2018-08-28T17:54:25.659Z,11.12
2018-08-28T17:56:54.577Z,9.13
2018-08-28T17:59:23.620Z,11.22
2018-08-28T18:01:52.234Z,10.77
2018-08-28T18:04:21.061Z,9.23
2018-08-28T18:06:50.013Z,10.80
2018-08-28T18:09:18.931Z,10.88
2018-08-28T18:11:47.805Z,10.82
2018-08-28T18:14:17.053Z,10.40
2018-08-28T18:16:47.637Z,10.38
2018-08-28T18:19:16.566Z,12.37
2018-08-28T18:21:45.432Z,10.85
2018-08-28T18:24:14.297Z,13.08
2018-08-28T18:26:43.169Z,10.88
2018-08-28T18:29:12.014Z,10.72
2018-08-28T18:31:40.932Z,11.12
2018-08-28T18:34:09.828Z,15.78
2018-08-28T18:36:38.663Z,11.73
2018-08-28T18:39:08.622Z,13.22
2018-08-28T18:41:37.601Z,11.65
2018-08-28T18:44:06.519Z,12.23
2018-08-28T18:46:35.811Z,12.30
2018-08-28T18:49:05.169Z,12.18
2018-08-28T18:51:34.036Z,12.03
2018-08-28T18:54:03.109Z,11.73
2018-08-28T18:56:31.969Z,12.37
2018-08-28T18:59:00.851Z,14.50
2018-08-28T19:01:29.473Z,17.90
2018-08-28T19:03:58.507Z,25.82
2018-08-28T19:06:27.431Z,23.80
2018-08-28T19:08:56.670Z,20.35
2018-08-28T19:11:25.590Z,21.15
2018-08-28T19:13:54.444Z,20.30
2018-08-28T19:16:24.954Z,18.07
2018-08-28T19:18:53.822Z,15.78
2018-08-28T19:21:22.730Z,16.82
2018-08-28T19:23:51.575Z,17.35
2018-08-28T19:26:20.470Z,19.00
2018-08-28T19:28:49.389Z,20.57
2018-08-28T19:31:18.324Z,21.80
2018-08-28T19:33:47.219Z,17.92
2018-08-28T19:36:16.148Z,20.90
2018-08-28T19:38:45.172Z,19.23
2018-08-28T19:41:14.044Z,17.30
2018-08-28T19:43:42.962Z,16.37
2018-08-28T19:46:11.858Z,17.85
2018-08-28T19:48:40.727Z,18.55
2018-08-28T19:51:09.690Z,19.50
2018-08-28T19:53:40.664Z,19.65
2018-08-28T19:56:10.020Z,20.37
2018-08-28T19:58:38.902Z,41.00
2018-08-28T20:01:07.509Z,21.10
2018-08-28T20:03:36.405Z,20.43
2018-08-28T20:06:05.608Z,19.42
2018-08-28T20:08:33.884Z,20.40
2018-08-28T20:11:02.878Z,19.25
2018-08-28T20:13:31.247Z,17.97
2018-08-28T20:15:59.540Z,21.67
2018-08-28T20:18:27.914Z,19.87
2018-08-28T20:20:56.418Z,18.10
2018-08-28T20:23:25.455Z,22.58
2018-08-28T20:25:53.776Z,19.40
2018-08-28T20:28:22.098Z,21.10
2018-08-28T20:30:50.754Z,21.40
2018-08-28T20:33:19.630Z,23.83
2018-08-28T20:35:48.496Z,20.60
2018-08-28T20:38:26.567Z,20.20
2018-08-28T20:40:54.878Z,22.30
2018-08-28T20:43:23.197Z,21.03
2018-08-28T20:45:51.510Z,22.20
2018-08-28T20:48:20.584Z,23.20
2018-08-28T20:50:48.912Z,22.03
2018-08-28T20:53:17.243Z,21.67
2018-08-28T20:55:46.387Z,23.47
2018-08-28T20:58:14.694Z,21.87
2018-08-28T21:00:42.979Z,24.50
2018-08-28T21:03:11.345Z,23.67
2018-08-28T21:05:39.707Z,23.10
2018-08-28T21:08:07.966Z,27.60
2018-08-28T21:10:36.285Z,22.47
2018-08-28T21:13:04.662Z,27.03
2018-08-28T21:15:33.143Z,24.93
2018-08-28T21:18:01.795Z,25.27
2018-08-28T21:20:30.061Z,21.57
2018-08-28T21:22:58.378Z,24.70
2018-08-28T21:25:26.872Z,23.30
2018-08-28T21:27:55.182Z,22.43
2018-08-28T21:30:23.507Z,25.10
2018-08-28T21:32:51.787Z,24.17
2018-08-28T21:35:20.079Z,25.77
2018-08-28T21:37:48.374Z,24.70
2018-08-28T21:40:16.663Z,23.17
2018-08-28T21:49:29.241Z,27.13
2018-08-28T21:51:57.527Z,26.77
2018-08-28T21:54:25.904Z,26.67
2018-08-28T21:56:54.201Z,27.70
2018-08-28T21:59:22.533Z,28.47
2018-08-28T22:01:51.415Z,28.13
2018-08-28T22:04:19.727Z,28.60
2018-08-28T22:06:53.524Z,26.37
2018-08-28T22:09:22.304Z,27.43
2018-08-28T22:11:50.611Z,27.93
2018-08-28T22:14:18.922Z,24.80
2018-08-28T22:16:47.204Z,25.90
2018-08-28T22:19:15.741Z,26.33
2018-08-28T22:21:44.070Z,23.50
2018-08-28T22:24:12.369Z,26.53
2018-08-28T22:26:40.644Z,24.33
2018-08-28T22:29:08.917Z,24.23
2018-08-28T22:31:37.539Z,26.40
2018-08-28T22:34:05.920Z,27.03
2018-08-28T22:36:34.280Z,27.90
2018-08-28T22:39:02.605Z,23.13
2018-08-28T22:41:30.959Z,25.17
2018-08-28T22:43:59.245Z,23.97
2018-08-28T22:46:27.554Z,26.60
2018-08-28T22:48:55.972Z,26.00
2018-08-28T22:51:24.318Z,23.77
2018-08-28T22:53:53.703Z,26.00
2018-08-28T22:56:22.033Z,23.57
2018-08-28T22:58:50.321Z,25.20
2018-08-28T23:01:18.654Z,26.50
2018-08-28T23:03:47.123Z,24.20
2018-08-28T23:06:15.430Z,29.27
2018-08-28T23:08:43.719Z,24.63
2018-08-28T23:11:12.051Z,28.03
2018-08-28T23:13:40.386Z,26.10
2018-08-28T23:16:08.705Z,25.73
2018-08-28T23:18:37.071Z,28.00
2018-08-28T23:21:05.388Z,28.77
2018-08-28T23:23:33.821Z,28.23
2018-08-28T23:26:02.091Z,29.97
2018-08-28T23:28:30.413Z,30.77
2018-08-28T23:30:58.694Z,28.70
2018-08-28T23:33:27.429Z,26.63
2018-08-28T23:35:55.749Z,27.60
2018-08-28T23:38:24.356Z,30.07
2018-08-28T23:40:52.673Z,28.30
2018-08-28T23:43:21.019Z,29.47
2018-08-28T23:45:49.303Z,28.90
2018-08-28T23:48:17.647Z,32.60
2018-08-28T23:50:45.958Z,24.77
2018-08-28T23:53:14.272Z,26.20
2018-08-28T23:55:42.655Z,28.67
2018-08-28T23:58:10.939Z,31.60
